Latest Weather Observations for Fowlers Gap

IDN60801

Issued at 4:33 pm EST Monday 26 September 2016 (issued every 30 minutes, with the page automatically refreshed every 10 minutes)

About weather observations | Map of weather stations | Latest weather observations for NSW | Other Formats
Station Details ID: 046128 Name: FOWLERS GAP AWS Lat: -31.09 Lon: 141.70 Height: 181.0 m
Data from the previous 72 hours. | See also: Recent months at Fowlers Gap
Date/Time
EST
Temp
°C
App
Temp
°C
Dew
Point
°C
Rel
Hum
%
Delta-T
°C
Wind Press
QNH
hPa
Press
MSL
hPa
Rain since
9am
mm
Dir  Spd
km/h
Gust
km/h
Spd
kts
Gust
kts
26/04:30pm 21.9 17.0 2.1 27 9.3 W 17 24 9 13 1012.5 1012.2 0.0
26/04:00pm 21.7 17.2 1.9 27 9.3 W 15 26 8 14 1012.4 1012.1 0.0
26/03:30pm 21.8 16.9 2.0 27 9.3 W 17 22 9 12 1012.6 1012.3 0.0
26/03:00pm 21.7 17.0 2.9 29 9.0 WNW 17 24 9 13 1012.9 1012.6 0.0
26/02:30pm 21.2 16.6 1.5 27 9.1 WNW 15 20 8 11 1013.2 1012.9 0.0
26/02:00pm 20.7 15.7 1.1 27 9.0 WNW 17 24 9 13 1013.7 1013.4 0.0
26/01:30pm 20.4 15.8 1.3 28 8.8 NW 15 26 8 14 1014.0 1013.7 0.0
26/01:00pm 19.5 14.8 1.0 29 8.4 NW 15 24 8 13 1014.4 1014.1 0.0
26/12:30pm 19.5 15.3 1.9 31 8.1 NW 13 20 7 11 1014.9 1014.7 0.0
26/12:00pm 18.4 14.7 2.3 34 7.4 NNW 11 19 6 10 1015.1 1014.8 0.0
26/11:30am 17.9 14.3 3.0 37 6.9 NNW 11 20 6 11 1015.6 1015.3 0.0
26/11:00am 17.6 13.7 3.5 39 6.6 NW 13 20 7 11 1016.2 1015.9 0.0
26/10:30am 17.1 13.7 4.1 42 6.2 NW 11 19 6 10 1016.2 1015.9 0.0
26/10:00am 16.4 13.0 5.7 49 5.2 NNW 13 17 7 9 1016.3 1016.0 0.0
26/09:30am 15.9 13.5 7.1 56 4.4 N 9 13 5 7 1016.5 1016.2 0.0
26/09:00am 14.5 12.8 8.2 66 3.2 E 7 11 4 6 1016.8 1016.5 0.2
26/08:30am 13.6 12.0 8.7 72 2.5 ENE 7 9 4 5 1016.7 1016.4 0.2
26/08:00am 11.6 10.9 8.5 81 1.5 E 2 9 1 5 1016.5 1016.2 0.2
26/07:30am 8.7 8.1 7.6 93 0.5 CALM 0 0 0 0 1016.2 1015.9 0.2
26/07:00am 6.6 5.8 6.3 98 0.1 CALM 0 0 0 0 1016.2 1015.9 0.2
26/06:30am 5.3 4.2 4.9 97 0.2 CALM 0 6 0 3 1016.1 1015.8 0.2
26/06:00am 5.7 4.6 5.3 97 0.2 CALM 0 0 0 0 1015.8 1015.5 0.2
26/05:30am 5.9 4.9 5.5 97 0.2 CALM 0 0 0 0 1015.6 1015.3 0.2
26/05:00am 6.2 5.2 5.6 96 0.3 CALM 0 0 0 0 1015.3 1015.0 0.2
26/04:30am 6.5 4.8 6.1 97 0.2 WSW 4 6 2 3 1015.3 1015.0 0.2
26/04:00am 6.9 5.7 6.3 96 0.3 SW 2 7 1 4 1015.3 1015.0 0.2
26/03:30am 7.5 6.8 6.9 96 0.3 CALM 0 0 0 0 1015.6 1015.3 0.2
26/03:00am 7.3 6.5 6.7 96 0.3 CALM 0 0 0 0 1015.7 1015.4 0.2
26/02:30am 7.6 6.9 6.9 95 0.3 CALM 0 0 0 0 1015.9 1015.6 0.2
26/02:00am 7.8 7.1 6.9 94 0.4 CALM 0 0 0 0 1016.2 1015.9 0.2
26/01:30am 8.8 7.2 7.9 94 0.4 W 6 7 3 4 1016.3 1016.0 0.2
26/01:00am 8.7 7.1 7.8 94 0.4 WSW 6 7 3 4 1016.5 1016.2 0.2
26/12:30am 8.9 7.3 7.8 93 0.5 W 6 6 3 3 1016.5 1016.2 0.2
26/12:00am 9.0 7.2 8.1 94 0.4 WNW 7 7 4 4 1016.5 1016.2 0.2
 
Date/Time
EST
Temp
°C
App
Temp
°C
Dew
Point
°C
Rel
Hum
%
Delta-T
°C
Wind Press
QNH
hPa
Press
MSL
hPa
Rain since
9am
mm
Dir  Spd
km/h
Gust
km/h
Spd
kts
Gust
kts
25/11:30pm 9.4 9.1 8.5 94 0.4 CALM 0 0 0 0 1016.5 1016.2 0.2
25/11:00pm 9.9 9.6 8.8 93 0.5 CALM 0 0 0 0 1016.4 1016.1 0.2
25/10:30pm 10.0 9.6 8.3 89 0.8 CALM 0 0 0 0 1016.6 1016.3 0.2
25/10:00pm 10.6 10.4 9.0 90 0.8 CALM 0 0 0 0 1016.6 1016.3 0.2
25/09:30pm 11.1 10.8 8.8 86 1.1 CALM 0 0 0 0 1016.5 1016.2 0.2
25/09:00pm 11.7 11.0 8.6 81 1.5 SW 2 7 1 4 1016.2 1015.9 0.2
25/08:30pm 12.0 10.1 9.2 83 1.4 WSW 9 11 5 6 1016.0 1015.7 0.2
25/08:00pm 13.1 11.2 9.0 76 2.1 WSW 9 11 5 6 1015.5 1015.2 0.2
25/07:30pm 13.6 11.6 8.7 72 2.5 SW 9 9 5 5 1015.2 1014.9 0.2
25/07:00pm 14.6 12.0 7.6 63 3.5 WSW 11 13 6 7 1014.7 1014.4 0.2
25/06:30pm 15.7 13.0 7.2 57 4.2 WSW 11 15 6 8 1014.4 1014.1 0.2
25/06:00pm 17.0 13.5 5.6 47 5.6 W 13 17 7 9 1014.1 1013.8 0.2
25/05:30pm 17.7 14.0 6.3 47 5.7 W 15 20 8 11 1014.0 1013.7 0.2
25/05:00pm 18.1 15.4 5.7 44 6.1 W 9 15 5 8 1013.8 1013.5 0.2
25/04:30pm 18.0 14.8 5.2 43 6.2 SW 11 17 6 9 1013.5 1013.2 0.2
25/04:00pm 17.6 14.4 4.9 43 6.1 SSW 11 15 6 8 1013.7 1013.4 0.2
25/03:30pm 17.7 15.4 5.0 43 6.1 SSE 6 17 3 9 1014.0 1013.7 0.2
25/03:00pm 17.6 14.3 6.5 48 5.5 S 13 30 7 16 1014.1 1013.8 0.2
25/02:30pm 17.3 13.9 5.9 47 5.6 SW 13 24 7 13 1014.4 1014.1 0.2
25/02:00pm 16.9 13.5 5.8 48 5.4 S 13 24 7 13 1014.4 1014.1 0.2
25/01:30pm 16.3 13.4 6.7 53 4.8 SSE 11 24 6 13 1015.2 1014.9 0.2
25/01:00pm 15.9 12.5 6.1 52 4.8 SSE 13 20 7 11 1015.4 1015.1 0.2
25/12:30pm 15.5 11.8 6.5 55 4.4 SSE 15 22 8 12 1015.7 1015.4 0.2
25/12:00pm 15.9 12.4 8.6 62 3.7 SSE 17 26 9 14 1015.8 1015.5 0.2
25/11:30am 14.9 10.4 7.0 59 3.9 S 20 30 11 16 1016.1 1015.8 0.0
25/11:00am 14.3 9.7 6.6 60 3.8 S 20 32 11 17 1016.5 1016.2 0.0
25/10:30am 13.8 9.2 6.7 62 3.5 S 20 30 11 16 1016.9 1016.6 0.0
25/10:00am 13.1 7.7 6.2 63 3.3 S 24 33 13 18 1016.8 1016.5 0.0
25/09:30am 12.4 6.2 6.2 66 3.0 SSE 28 35 15 19 1016.6 1016.3 0.0
25/09:00am 12.5 6.4 6.8 68 2.8 SSE 28 35 15 19 1016.0 1015.7 4.6
25/08:30am 11.6 6.4 7.1 74 2.2 S 24 30 13 16 1015.7 1015.4 4.6
25/08:00am 11.1 6.5 8.1 82 1.5 S 22 30 12 16 1015.6 1015.3 4.6
25/07:30am 10.5 8.1 8.8 89 0.8 SSW 11 17 6 9 1015.3 1015.0 4.6
25/07:00am 9.0 6.0 7.6 91 0.7 SW 13 15 7 8 1014.7 1014.4 4.6
25/06:30am 8.6 6.3 7.4 92 0.6 SSW 9 13 5 7 1014.0 1013.7 4.6
25/06:00am 8.9 6.3 7.7 92 0.6 SSW 11 13 6 7 1013.5 1013.2 4.6
25/05:30am 9.6 6.7 8.2 91 0.7 SSW 13 17 7 9 1012.9 1012.6 4.6
25/05:00am 10.1 5.1 8.0 87 1.0 S 24 35 13 19 1012.1 1011.8 4.6
25/04:30am 10.5 6.4 8.6 88 0.9 SSW 20 28 11 15 1011.6 1011.3 4.6
25/04:00am 11.1 6.4 9.2 88 1.0 S 24 32 13 17 1011.4 1011.1 4.6
25/03:30am 11.5 6.9 9.6 88 1.0 S 24 30 13 16 1011.2 1010.9 4.6
25/03:00am 11.8 8.0 9.9 88 1.0 S 20 32 11 17 1010.8 1010.5 4.6
25/02:30am 11.4 7.8 9.7 89 0.9 SSW 19 26 10 14 1010.6 1010.3 4.6
25/02:00am 12.4 7.9 10.0 85 1.2 SSW 24 35 13 19 1010.4 1010.1 4.6
25/01:30am 11.5 6.9 9.6 88 1.0 SW 24 35 13 19 1010.8 1010.5 4.6
25/01:00am 10.6 6.6 8.9 89 0.8 SW 20 26 11 14 1010.8 1010.5 4.6
25/12:30am 10.8 8.2 9.2 90 0.8 SW 13 19 7 10 1010.4 1010.1 4.6
25/12:00am 11.4 7.8 9.7 89 0.9 SW 19 28 10 15 1010.0 1009.6 4.6
 
Date/Time
EST
Temp
°C
App
Temp
°C
Dew
Point
°C
Rel
Hum
%
Delta-T
°C
Wind Press
QNH
hPa
Press
MSL
hPa
Rain since
9am
mm
Dir  Spd
km/h
Gust
km/h
Spd
kts
Gust
kts
24/11:30pm 11.9 6.2 9.8 87 1.1 SW 30 44 16 24 1009.8 1009.4 4.6
24/11:19pm 12.6 7.9 10.5 87 1.1 WSW 26 39 14 21 1010.4 1010.1 4.6
24/11:00pm 12.1 10.6 11.8 98 0.2 WNW 11 13 6 7 1009.1 1008.8 3.4
24/10:30pm 11.6 12.0 11.1 97 0.3 CALM 0 0 0 0 1008.7 1008.4 3.4
24/10:00pm 12.2 11.5 11.9 98 0.2 NW 7 9 4 5 1008.8 1008.5 3.4
24/09:30pm 12.3 12.9 12.0 98 0.2 CALM 0 0 0 0 1008.6 1008.3 3.4
24/09:00pm 12.3 12.9 11.8 97 0.3 CALM 0 0 0 0 1008.6 1008.3 3.4
24/08:30pm 12.5 13.0 11.7 95 0.4 CALM 0 0 0 0 1008.3 1008.0 3.4
24/08:00pm 13.2 13.1 12.1 93 0.6 NE 4 7 2 4 1008.0 1007.7 3.4
24/07:30pm 14.0 13.5 12.6 91 0.8 NNE 7 11 4 6 1007.5 1007.2 3.4
24/07:00pm 14.3 14.6 12.3 88 1.1 NNE 2 7 1 4 1007.2 1006.9 3.4
24/06:30pm 15.1 14.6 12.6 85 1.4 N 7 11 4 6 1007.1 1006.8 3.4
24/06:00pm 15.4 13.6 12.2 81 1.8 N 13 20 7 11 1007.1 1006.8 3.4
24/05:30pm 15.6 13.2 12.5 82 1.7 N 17 20 9 11 1006.8 1006.5 3.4
24/05:00pm 15.2 13.7 13.2 88 1.1 NNE 13 19 7 10 1006.5 1006.2 3.4
24/04:30pm 14.8 12.1 13.0 89 1.0 NNE 19 22 10 12 1006.1 1005.8 3.4
24/04:00pm 14.8 12.6 13.2 90 0.9 NNE 17 20 9 11 1006.4 1006.1 3.2
24/03:30pm 14.8 13.1 12.3 85 1.4 NNE 13 19 7 10 1006.7 1006.4 3.2
24/03:00pm 15.2 13.8 12.3 83 1.6 N 11 17 6 9 1006.9 1006.6 2.8
24/02:30pm 15.3 14.4 11.3 77 2.2 W 7 9 4 5 1007.1 1006.8 1.8
24/02:00pm 16.6 12.8 9.8 64 3.6 N 20 30 11 16 1007.3 1007.0 0.2
24/01:30pm 17.3 14.2 10.4 64 3.7 N 17 24 9 13 1007.1 1006.8 0.2
24/01:00pm 16.7 14.7 10.1 65 3.5 N 11 15 6 8 1008.2 1007.9 0.2
24/12:30pm 16.1 14.3 10.8 71 2.8 NNW 11 17 6 9 1008.5 1008.2 0.2
24/12:00pm 16.5 13.5 9.4 63 3.7 NNW 15 20 8 11 1010.1 1009.8 0.0
24/11:30am 17.1 13.7 9.0 59 4.2 N 17 24 9 13 1010.7 1010.4 0.0
24/11:00am 17.2 14.2 7.8 54 4.8 NNE 13 17 7 9 1010.0 1009.6 0.0
24/10:30am 17.7 13.9 7.4 51 5.2 NNE 17 20 9 11 1009.4 1009.0 0.0
24/10:00am 17.6 14.1 7.4 51 5.2 NNE 15 20 8 11 1010.0 1009.6 0.0
24/09:30am 17.5 13.8 7.8 53 5.0 N 17 22 9 12 1010.1 1009.8 0.0
24/09:00am 14.9 12.5 8.8 67 3.1 NE 11 15 6 8 1010.3 1010.0 0.2
24/08:30am 15.1 12.4 9.0 67 3.1 NE 13 17 7 9 1010.3 1010.0 0.2
24/08:00am 12.5 10.2 9.1 80 1.7 ENE 11 17 6 9 1009.8 1009.4 0.2
24/07:30am 10.6 7.7 8.0 84 1.3 ENE 13 15 7 8 1009.6 1009.2 0.2
24/07:00am 7.8 7.1 7.1 95 0.3 CALM 0 0 0 0 1009.9 1009.5 0.2
24/06:30am 6.6 4.8 5.6 93 0.4 SW 4 7 2 4 1009.7 1009.3 0.2
24/06:00am 8.2 7.5 6.8 91 0.7 CALM 0 0 0 0 1009.7 1009.3 0.2
24/05:30am 8.7 6.0 7.2 90 0.7 ENE 11 13 6 7 1009.1 1008.8 0.2
24/05:00am 8.4 7.7 7.0 91 0.7 CALM 0 0 0 0 1008.8 1008.5 0.2
24/04:30am 8.9 7.0 7.4 90 0.7 NNE 7 11 4 6 1008.8 1008.5 0.2
24/04:00am 8.9 7.5 7.2 89 0.8 E 4 6 2 3 1008.4 1008.1 0.2
24/03:30am 8.9 6.6 7.4 90 0.7 E 9 11 5 6 1008.7 1008.4 0.2
24/03:00am 9.3 7.0 7.6 89 0.8 ENE 9 13 5 7 1008.9 1008.6 0.2
24/02:30am 9.9 7.7 7.7 86 1.1 ENE 9 11 5 6 1009.7 1009.3 0.2
24/02:00am 9.7 7.4 7.6 87 1.0 ENE 9 11 5 6 1010.1 1009.8 0.2
24/01:30am 9.8 7.6 7.7 87 1.0 ENE 9 11 5 6 1010.3 1010.0 0.2
24/01:00am 8.9 8.0 7.7 92 0.6 SSW 2 9 1 5 1010.6 1010.3 0.2
24/12:30am 9.8 9.2 7.6 86 1.1 CALM 0 0 0 0 1010.9 1010.6 0.2
24/12:00am 10.4 9.1 7.8 84 1.3 W 4 7 2 4 1011.3 1011.0 0.2
 
Date/Time
EST
Temp
°C
App
Temp
°C
Dew
Point
°C
Rel
Hum
%
Delta-T
°C
Wind Press
QNH
hPa
Press
MSL
hPa
Rain since
9am
mm
Dir  Spd
km/h
Gust
km/h
Spd
kts
Gust
kts
23/11:30pm 11.4 9.6 7.9 79 1.7 NW 7 9 4 5 1011.3 1011.0 0.2
23/11:00pm 11.8 10.0 7.9 77 1.9 NNW 7 11 4 6 1011.5 1011.2 0.2
23/10:30pm 12.7 10.4 7.6 71 2.5 NNW 9 13 5 7 1011.7 1011.4 0.2
23/10:00pm 13.3 10.6 7.3 67 3.0 NNW 11 15 6 8 1011.4 1011.1 0.2
23/09:30pm 14.3 11.1 6.9 61 3.6 NNE 13 17 7 9 1011.1 1010.8 0.2
23/09:00pm 14.5 11.4 7.1 61 3.7 NNE 13 15 7 8 1011.2 1010.9 0.2
23/08:30pm 14.5 12.2 7.5 63 3.5 NNE 9 11 5 6 1011.2 1010.9 0.2
23/08:00pm 14.9 12.6 7.5 61 3.7 NE 9 11 5 6 1011.2 1010.9 0.2
23/07:30pm 15.0 12.7 7.5 61 3.7 NE 9 11 5 6 1011.1 1010.8 0.2
23/07:00pm 16.0 13.6 7.0 55 4.5 NNE 9 13 5 7 1010.9 1010.6 0.2
23/06:30pm 17.2 13.7 5.5 46 5.7 NNE 13 17 7 9 1010.9 1010.6 0.2
23/06:00pm 18.0 14.3 4.2 40 6.6 N 13 19 7 10 1011.2 1010.9 0.2
23/05:30pm 18.5 14.5 4.7 40 6.7 N 15 22 8 12 1011.3 1011.0 0.2
23/05:00pm 18.7 14.6 4.5 39 6.9 NNW 15 24 8 13 1011.2 1010.9 0.2

Other Formats:

Comma delimited format used in spreadsheet applications
http://www.bom.gov.au/fwo/IDN60801/IDN60801.94686.axf

JavaScript Object Notation format (JSON) in row-major order
http://www.bom.gov.au/fwo/IDN60801/IDN60801.94686.json